sensor_id;sensor_type;location;lat;lon;timestamp;P1;durP1;ratioP1;P2;durP2;ratioP2
11535;SDS011;5824;49.336;8.652;2024-02-14T00:01:05;5.73;;;3.00;;
11535;SDS011;5824;49.336;8.652;2024-02-14T00:03:33;2.90;;;2.20;;
11535;SDS011;5824;49.336;8.652;2024-02-14T00:05:59;4.17;;;2.67;;
11535;SDS011;5824;49.336;8.652;2024-02-14T00:08:25;8.40;;;3.30;;
11535;SDS011;5824;49.336;8.652;2024-02-14T00:10:50;3.83;;;2.70;;
11535;SDS011;5824;49.336;8.652;2024-02-14T00:13:16;4.30;;;2.43;;
11535;SDS011;5824;49.336;8.652;2024-02-14T00:15:43;4.30;;;2.87;;
11535;SDS011;5824;49.336;8.652;2024-02-14T00:18:09;3.97;;;2.70;;
11535;SDS011;5824;49.336;8.652;2024-02-14T00:20:35;4.57;;;2.80;;
11535;SDS011;5824;49.336;8.652;2024-02-14T00:23:01;8.00;;;2.83;;
11535;SDS011;5824;49.336;8.652;2024-02-14T00:25:26;3.97;;;2.70;;
11535;SDS011;5824;49.336;8.652;2024-02-14T00:27:52;4.90;;;3.10;;
11535;SDS011;5824;49.336;8.652;2024-02-14T00:30:19;5.00;;;3.23;;
11535;SDS011;5824;49.336;8.652;2024-02-14T00:32:44;4.23;;;2.80;;
11535;SDS011;5824;49.336;8.652;2024-02-14T00:35:10;5.23;;;3.00;;
11535;SDS011;5824;49.336;8.652;2024-02-14T00:37:35;4.03;;;2.97;;
11535;SDS011;5824;49.336;8.652;2024-02-14T00:40:01;3.97;;;2.77;;
11535;SDS011;5824;49.336;8.652;2024-02-14T00:42:27;4.50;;;3.13;;
11535;SDS011;5824;49.336;8.652;2024-02-14T00:44:52;5.40;;;3.27;;
11535;SDS011;5824;49.336;8.652;2024-02-14T00:47:18;5.60;;;3.20;;
11535;SDS011;5824;49.336;8.652;2024-02-14T00:49:43;5.03;;;3.30;;
11535;SDS011;5824;49.336;8.652;2024-02-14T00:52:09;5.93;;;3.33;;
11535;SDS011;5824;49.336;8.652;2024-02-14T00:54:34;7.30;;;3.33;;
11535;SDS011;5824;49.336;8.652;2024-02-14T00:57:00;4.27;;;3.40;;
11535;SDS011;5824;49.336;8.652;2024-02-14T00:59:25;5.50;;;3.50;;
11535;SDS011;5824;49.336;8.652;2024-02-14T01:01:51;6.53;;;4.07;;
11535;SDS011;5824;49.336;8.652;2024-02-14T01:04:16;5.60;;;3.13;;
11535;SDS011;5824;49.336;8.652;2024-02-14T01:06:42;5.30;;;3.13;;
11535;SDS011;5824;49.336;8.652;2024-02-14T01:09:07;6.47;;;2.90;;
11535;SDS011;5824;49.336;8.652;2024-02-14T01:11:33;8.70;;;3.20;;
11535;SDS011;5824;49.336;8.652;2024-02-14T01:13:59;4.70;;;2.63;;
11535;SDS011;5824;49.336;8.652;2024-02-14T01:16:25;5.43;;;2.80;;
11535;SDS011;5824;49.336;8.652;2024-02-14T01:18:51;3.80;;;2.83;;
11535;SDS011;5824;49.336;8.652;2024-02-14T01:21:16;4.43;;;2.80;;
11535;SDS011;5824;49.336;8.652;2024-02-14T01:23:42;7.63;;;3.37;;
11535;SDS011;5824;49.336;8.652;2024-02-14T01:26:07;9.00;;;2.80;;
11535;SDS011;5824;49.336;8.652;2024-02-14T01:28:33;3.13;;;2.40;;
11535;SDS011;5824;49.336;8.652;2024-02-14T01:30:58;5.23;;;2.90;;
11535;SDS011;5824;49.336;8.652;2024-02-14T01:33:24;7.30;;;2.50;;
11535;SDS011;5824;49.336;8.652;2024-02-14T01:35:49;4.57;;;3.20;;
11535;SDS011;5824;49.336;8.652;2024-02-14T01:38:15;4.20;;;2.50;;
11535;SDS011;5824;49.336;8.652;2024-02-14T01:40:43;5.27;;;2.63;;
11535;SDS011;5824;49.336;8.652;2024-02-14T01:43:10;6.57;;;2.87;;
11535;SDS011;5824;49.336;8.652;2024-02-14T01:45:37;8.80;;;2.83;;
11535;SDS011;5824;49.336;8.652;2024-02-14T01:48:04;4.77;;;3.30;;
11535;SDS011;5824;49.336;8.652;2024-02-14T01:50:31;6.03;;;3.30;;
11535;SDS011;5824;49.336;8.652;2024-02-14T01:52:58;8.00;;;3.20;;
11535;SDS011;5824;49.336;8.652;2024-02-14T01:55:24;6.50;;;3.10;;
11535;SDS011;5824;49.336;8.652;2024-02-14T01:57:51;5.80;;;3.40;;
11535;SDS011;5824;49.336;8.652;2024-02-14T02:00:18;7.37;;;3.43;;
11535;SDS011;5824;49.336;8.652;2024-02-14T02:02:44;7.40;;;3.57;;
11535;SDS011;5824;49.336;8.652;2024-02-14T02:05:11;7.20;;;3.73;;
11535;SDS011;5824;49.336;8.652;2024-02-14T02:07:38;7.27;;;3.77;;
11535;SDS011;5824;49.336;8.652;2024-02-14T02:10:07;5.43;;;3.43;;
11535;SDS011;5824;49.336;8.652;2024-02-14T02:12:34;5.57;;;3.30;;
11535;SDS011;5824;49.336;8.652;2024-02-14T02:14:59;3.63;;;3.10;;
11535;SDS011;5824;49.336;8.652;2024-02-14T02:17:25;6.60;;;3.27;;
11535;SDS011;5824;49.336;8.652;2024-02-14T02:19:53;4.67;;;3.40;;
11535;SDS011;5824;49.336;8.652;2024-02-14T02:22:19;4.40;;;3.20;;
11535;SDS011;5824;49.336;8.652;2024-02-14T02:24:44;7.83;;;3.10;;
11535;SDS011;5824;49.336;8.652;2024-02-14T02:27:10;6.33;;;2.97;;
11535;SDS011;5824;49.336;8.652;2024-02-14T02:29:36;4.70;;;3.10;;
11535;SDS011;5824;49.336;8.652;2024-02-14T02:32:03;4.53;;;3.10;;
11535;SDS011;5824;49.336;8.652;2024-02-14T02:34:31;6.30;;;3.30;;
11535;SDS011;5824;49.336;8.652;2024-02-14T02:36:56;9.17;;;4.27;;
11535;SDS011;5824;49.336;8.652;2024-02-14T02:39:22;7.63;;;4.10;;
11535;SDS011;5824;49.336;8.652;2024-02-14T02:41:48;5.90;;;3.20;;
11535;SDS011;5824;49.336;8.652;2024-02-14T02:44:14;6.07;;;3.10;;
11535;SDS011;5824;49.336;8.652;2024-02-14T02:46:40;8.40;;;3.50;;
11535;SDS011;5824;49.336;8.652;2024-02-14T02:49:05;4.53;;;2.67;;
11535;SDS011;5824;49.336;8.652;2024-02-14T02:51:31;4.90;;;2.83;;
11535;SDS011;5824;49.336;8.652;2024-02-14T02:53:56;4.67;;;2.83;;
11535;SDS011;5824;49.336;8.652;2024-02-14T02:56:22;5.70;;;3.37;;
11535;SDS011;5824;49.336;8.652;2024-02-14T02:58:52;9.77;;;3.50;;
11535;SDS011;5824;49.336;8.652;2024-02-14T03:01:19;6.30;;;3.30;;
11535;SDS011;5824;49.336;8.652;2024-02-14T03:03:44;7.13;;;3.20;;
11535;SDS011;5824;49.336;8.652;2024-02-14T03:06:10;3.53;;;2.70;;
11535;SDS011;5824;49.336;8.652;2024-02-14T03:08:37;5.70;;;2.90;;
11535;SDS011;5824;49.336;8.652;2024-02-14T03:11:06;7.87;;;3.40;;
11535;SDS011;5824;49.336;8.652;2024-02-14T03:13:32;4.70;;;2.70;;
11535;SDS011;5824;49.336;8.652;2024-02-14T03:15:58;4.50;;;3.17;;
11535;SDS011;5824;49.336;8.652;2024-02-14T03:18:24;6.57;;;3.50;;
11535;SDS011;5824;49.336;8.652;2024-02-14T03:20:50;5.50;;;3.23;;
11535;SDS011;5824;49.336;8.652;2024-02-14T03:23:17;6.70;;;2.83;;
11535;SDS011;5824;49.336;8.652;2024-02-14T03:25:43;5.63;;;3.80;;
11535;SDS011;5824;49.336;8.652;2024-02-14T03:28:08;7.20;;;3.33;;
11535;SDS011;5824;49.336;8.652;2024-02-14T03:30:34;6.23;;;3.30;;
11535;SDS011;5824;49.336;8.652;2024-02-14T03:33:00;5.00;;;2.60;;
11535;SDS011;5824;49.336;8.652;2024-02-14T03:35:27;5.67;;;2.60;;
11535;SDS011;5824;49.336;8.652;2024-02-14T03:37:53;4.87;;;2.60;;
11535;SDS011;5824;49.336;8.652;2024-02-14T03:40:18;3.33;;;2.63;;
11535;SDS011;5824;49.336;8.652;2024-02-14T03:42:47;4.17;;;2.60;;
11535;SDS011;5824;49.336;8.652;2024-02-14T03:45:13;6.50;;;3.57;;
11535;SDS011;5824;49.336;8.652;2024-02-14T03:47:39;4.33;;;2.83;;
11535;SDS011;5824;49.336;8.652;2024-02-14T03:50:04;5.87;;;3.10;;
11535;SDS011;5824;49.336;8.652;2024-02-14T03:52:32;3.53;;;2.60;;
11535;SDS011;5824;49.336;8.652;2024-02-14T03:54:57;3.93;;;2.30;;
11535;SDS011;5824;49.336;8.652;2024-02-14T03:57:24;3.50;;;2.30;;
11535;SDS011;5824;49.336;8.652;2024-02-14T03:59:52;6.57;;;3.00;;
11535;SDS011;5824;49.336;8.652;2024-02-14T04:02:18;8.80;;;2.80;;
11535;SDS011;5824;49.336;8.652;2024-02-14T04:04:44;5.40;;;3.00;;
11535;SDS011;5824;49.336;8.652;2024-02-14T04:07:11;4.00;;;2.77;;
11535;SDS011;5824;49.336;8.652;2024-02-14T04:09:37;4.27;;;2.60;;
11535;SDS011;5824;49.336;8.652;2024-02-14T04:12:03;8.80;;;3.03;;
11535;SDS011;5824;49.336;8.652;2024-02-14T04:14:28;5.47;;;2.70;;
11535;SDS011;5824;49.336;8.652;2024-02-14T04:16:54;5.97;;;3.00;;
11535;SDS011;5824;49.336;8.652;2024-02-14T04:19:20;9.90;;;2.90;;
11535;SDS011;5824;49.336;8.652;2024-02-14T04:21:45;4.87;;;2.73;;
11535;SDS011;5824;49.336;8.652;2024-02-14T04:24:11;4.53;;;2.77;;
11535;SDS011;5824;49.336;8.652;2024-02-14T04:26:37;4.47;;;2.50;;
11535;SDS011;5824;49.336;8.652;2024-02-14T04:29:02;4.20;;;2.80;;
11535;SDS011;5824;49.336;8.652;2024-02-14T04:31:28;4.67;;;2.60;;
11535;SDS011;5824;49.336;8.652;2024-02-14T04:33:57;4.30;;;2.83;;
11535;SDS011;5824;49.336;8.652;2024-02-14T04:36:23;4.50;;;2.27;;
11535;SDS011;5824;49.336;8.652;2024-02-14T04:38:49;4.10;;;2.80;;
11535;SDS011;5824;49.336;8.652;2024-02-14T04:41:15;5.00;;;2.70;;
11535;SDS011;5824;49.336;8.652;2024-02-14T04:43:41;6.77;;;2.57;;
11535;SDS011;5824;49.336;8.652;2024-02-14T04:46:07;11.40;;;2.57;;
11535;SDS011;5824;49.336;8.652;2024-02-14T04:48:34;5.60;;;2.60;;
11535;SDS011;5824;49.336;8.652;2024-02-14T04:51:00;6.60;;;2.47;;
11535;SDS011;5824;49.336;8.652;2024-02-14T04:53:26;8.23;;;2.67;;
11535;SDS011;5824;49.336;8.652;2024-02-14T04:55:52;3.13;;;2.30;;
11535;SDS011;5824;49.336;8.652;2024-02-14T04:58:18;2.87;;;2.33;;
11535;SDS011;5824;49.336;8.652;2024-02-14T05:00:44;4.40;;;2.60;;
11535;SDS011;5824;49.336;8.652;2024-02-14T05:03:09;3.13;;;2.33;;
11535;SDS011;5824;49.336;8.652;2024-02-14T05:05:35;3.90;;;2.20;;
11535;SDS011;5824;49.336;8.652;2024-02-14T05:08:01;5.03;;;2.50;;
11535;SDS011;5824;49.336;8.652;2024-02-14T05:10:30;5.70;;;2.67;;
11535;SDS011;5824;49.336;8.652;2024-02-14T05:12:56;4.53;;;2.60;;
11535;SDS011;5824;49.336;8.652;2024-02-14T05:15:22;4.73;;;3.23;;
11535;SDS011;5824;49.336;8.652;2024-02-14T05:17:47;6.23;;;2.80;;
11535;SDS011;5824;49.336;8.652;2024-02-14T05:20:14;4.53;;;2.87;;
11535;SDS011;5824;49.336;8.652;2024-02-14T05:22:40;5.00;;;3.23;;
11535;SDS011;5824;49.336;8.652;2024-02-14T05:25:06;5.87;;;3.40;;
11535;SDS011;5824;49.336;8.652;2024-02-14T05:27:35;4.10;;;2.60;;
11535;SDS011;5824;49.336;8.652;2024-02-14T05:30:02;5.70;;;2.60;;
11535;SDS011;5824;49.336;8.652;2024-02-14T05:32:30;6.70;;;2.87;;
11535;SDS011;5824;49.336;8.652;2024-02-14T05:34:56;3.83;;;2.40;;
11535;SDS011;5824;49.336;8.652;2024-02-14T05:37:22;5.80;;;2.53;;
11535;SDS011;5824;49.336;8.652;2024-02-14T05:39:47;5.60;;;2.60;;
11535;SDS011;5824;49.336;8.652;2024-02-14T05:42:13;5.77;;;3.60;;
11535;SDS011;5824;49.336;8.652;2024-02-14T05:44:42;6.97;;;3.57;;
11535;SDS011;5824;49.336;8.652;2024-02-14T05:47:10;5.70;;;3.43;;
11535;SDS011;5824;49.336;8.652;2024-02-14T05:49:37;10.73;;;3.60;;
11535;SDS011;5824;49.336;8.652;2024-02-14T05:52:03;5.90;;;3.47;;
11535;SDS011;5824;49.336;8.652;2024-02-14T05:54:29;5.97;;;3.10;;
11535;SDS011;5824;49.336;8.652;2024-02-14T05:56:55;6.37;;;3.07;;
11535;SDS011;5824;49.336;8.652;2024-02-14T05:59:21;3.03;;;2.73;;
11535;SDS011;5824;49.336;8.652;2024-02-14T06:01:47;7.80;;;2.90;;
11535;SDS011;5824;49.336;8.652;2024-02-14T06:04:12;5.50;;;2.90;;
11535;SDS011;5824;49.336;8.652;2024-02-14T06:06:38;6.03;;;3.20;;
11535;SDS011;5824;49.336;8.652;2024-02-14T06:09:03;5.40;;;2.70;;
11535;SDS011;5824;49.336;8.652;2024-02-14T06:11:34;7.50;;;3.10;;
11535;SDS011;5824;49.336;8.652;2024-02-14T06:14:00;3.90;;;2.50;;
11535;SDS011;5824;49.336;8.652;2024-02-14T06:16:26;4.83;;;3.03;;
11535;SDS011;5824;49.336;8.652;2024-02-14T06:18:51;6.00;;;2.53;;
11535;SDS011;5824;49.336;8.652;2024-02-14T06:21:17;4.07;;;2.83;;
11535;SDS011;5824;49.336;8.652;2024-02-14T06:23:44;4.73;;;2.43;;
11535;SDS011;5824;49.336;8.652;2024-02-14T06:26:11;3.97;;;2.53;;
11535;SDS011;5824;49.336;8.652;2024-02-14T06:28:37;5.70;;;3.20;;
11535;SDS011;5824;49.336;8.652;2024-02-14T06:31:02;5.10;;;2.80;;
11535;SDS011;5824;49.336;8.652;2024-02-14T06:33:28;7.57;;;2.43;;
11535;SDS011;5824;49.336;8.652;2024-02-14T06:35:54;7.63;;;4.10;;
11535;SDS011;5824;49.336;8.652;2024-02-14T06:38:19;5.57;;;2.50;;
11535;SDS011;5824;49.336;8.652;2024-02-14T06:40:45;4.03;;;2.53;;
11535;SDS011;5824;49.336;8.652;2024-02-14T06:43:11;2.50;;;2.10;;
11535;SDS011;5824;49.336;8.652;2024-02-14T06:45:37;3.60;;;2.30;;
11535;SDS011;5824;49.336;8.652;2024-02-14T06:48:03;5.70;;;3.10;;
11535;SDS011;5824;49.336;8.652;2024-02-14T06:50:29;5.00;;;3.27;;
11535;SDS011;5824;49.336;8.652;2024-02-14T06:52:56;10.10;;;5.30;;
11535;SDS011;5824;49.336;8.652;2024-02-14T06:55:24;19.17;;;6.53;;
11535;SDS011;5824;49.336;8.652;2024-02-14T06:57:50;13.40;;;6.10;;
11535;SDS011;5824;49.336;8.652;2024-02-14T07:00:16;18.27;;;6.60;;
11535;SDS011;5824;49.336;8.652;2024-02-14T07:02:42;16.00;;;6.03;;
11535;SDS011;5824;49.336;8.652;2024-02-14T07:05:08;8.10;;;4.27;;
11535;SDS011;5824;49.336;8.652;2024-02-14T07:07:37;13.07;;;6.60;;
11535;SDS011;5824;49.336;8.652;2024-02-14T07:10:04;17.17;;;7.70;;
11535;SDS011;5824;49.336;8.652;2024-02-14T07:12:31;15.00;;;5.53;;
11535;SDS011;5824;49.336;8.652;2024-02-14T07:14:57;6.80;;;3.90;;
11535;SDS011;5824;49.336;8.652;2024-02-14T07:17:22;12.40;;;5.20;;
11535;SDS011;5824;49.336;8.652;2024-02-14T07:19:48;12.23;;;5.47;;
11535;SDS011;5824;49.336;8.652;2024-02-14T07:22:14;11.03;;;5.40;;
11535;SDS011;5824;49.336;8.652;2024-02-14T07:24:41;13.60;;;5.70;;
11535;SDS011;5824;49.336;8.652;2024-02-14T07:27:07;9.93;;;4.60;;
11535;SDS011;5824;49.336;8.652;2024-02-14T07:29:33;9.17;;;4.57;;
11535;SDS011;5824;49.336;8.652;2024-02-14T07:32:01;8.30;;;4.67;;
11535;SDS011;5824;49.336;8.652;2024-02-14T07:34:27;15.77;;;6.10;;
11535;SDS011;5824;49.336;8.652;2024-02-14T07:36:52;13.57;;;7.50;;
11535;SDS011;5824;49.336;8.652;2024-02-14T07:39:18;7.63;;;3.70;;
11535;SDS011;5824;49.336;8.652;2024-02-14T07:41:43;10.60;;;4.93;;
11535;SDS011;5824;49.336;8.652;2024-02-14T07:44:09;9.10;;;4.30;;
11535;SDS011;5824;49.336;8.652;2024-02-14T07:46:34;8.67;;;4.10;;
11535;SDS011;5824;49.336;8.652;2024-02-14T07:49:00;3.33;;;2.50;;
11535;SDS011;5824;49.336;8.652;2024-02-14T07:51:26;6.20;;;2.60;;
11535;SDS011;5824;49.336;8.652;2024-02-14T07:53:53;3.80;;;2.50;;
11535;SDS011;5824;49.336;8.652;2024-02-14T07:56:19;4.93;;;2.57;;
11535;SDS011;5824;49.336;8.652;2024-02-14T07:58:45;4.33;;;2.90;;
11535;SDS011;5824;49.336;8.652;2024-02-14T08:01:10;2.70;;;2.13;;
11535;SDS011;5824;49.336;8.652;2024-02-14T08:03:36;6.17;;;3.93;;
11535;SDS011;5824;49.336;8.652;2024-02-14T08:06:01;4.50;;;2.40;;
11535;SDS011;5824;49.336;8.652;2024-02-14T08:08:27;3.90;;;2.53;;
11535;SDS011;5824;49.336;8.652;2024-02-14T08:10:52;6.00;;;2.70;;
11535;SDS011;5824;49.336;8.652;2024-02-14T08:13:19;11.50;;;2.37;;
11535;SDS011;5824;49.336;8.652;2024-02-14T08:15:45;5.60;;;3.00;;
11535;SDS011;5824;49.336;8.652;2024-02-14T08:18:11;7.17;;;2.60;;
11535;SDS011;5824;49.336;8.652;2024-02-14T08:20:37;4.63;;;2.83;;
11535;SDS011;5824;49.336;8.652;2024-02-14T08:23:03;4.87;;;2.40;;
11535;SDS011;5824;49.336;8.652;2024-02-14T08:25:28;5.30;;;2.30;;
11535;SDS011;5824;49.336;8.652;2024-02-14T08:27:54;5.33;;;2.50;;
11535;SDS011;5824;49.336;8.652;2024-02-14T08:30:20;5.00;;;2.47;;
11535;SDS011;5824;49.336;8.652;2024-02-14T08:32:46;4.73;;;3.10;;
11535;SDS011;5824;49.336;8.652;2024-02-14T08:35:12;7.57;;;3.70;;
11535;SDS011;5824;49.336;8.652;2024-02-14T08:37:38;6.63;;;2.77;;
11535;SDS011;5824;49.336;8.652;2024-02-14T08:40:05;11.37;;;3.67;;
11535;SDS011;5824;49.336;8.652;2024-02-14T08:42:32;11.97;;;4.80;;
11535;SDS011;5824;49.336;8.652;2024-02-14T08:44:58;24.40;;;9.70;;
11535;SDS011;5824;49.336;8.652;2024-02-14T08:47:24;6.17;;;3.27;;
11535;SDS011;5824;49.336;8.652;2024-02-14T08:49:49;7.10;;;3.27;;
11535;SDS011;5824;49.336;8.652;2024-02-14T08:52:15;5.13;;;3.00;;
11535;SDS011;5824;49.336;8.652;2024-02-14T08:54:40;7.53;;;2.67;;
11535;SDS011;5824;49.336;8.652;2024-02-14T08:57:06;5.33;;;3.20;;
11535;SDS011;5824;49.336;8.652;2024-02-14T08:59:32;5.93;;;2.60;;
11535;SDS011;5824;49.336;8.652;2024-02-14T09:01:57;6.10;;;2.90;;
11535;SDS011;5824;49.336;8.652;2024-02-14T09:04:23;7.23;;;2.60;;
11535;SDS011;5824;49.336;8.652;2024-02-14T09:06:48;5.53;;;2.70;;
11535;SDS011;5824;49.336;8.652;2024-02-14T09:09:14;4.33;;;3.03;;
11535;SDS011;5824;49.336;8.652;2024-02-14T09:11:40;6.47;;;2.60;;
11535;SDS011;5824;49.336;8.652;2024-02-14T09:14:06;4.70;;;2.60;;
11535;SDS011;5824;49.336;8.652;2024-02-14T09:16:34;6.60;;;2.53;;
11535;SDS011;5824;49.336;8.652;2024-02-14T09:19:00;7.57;;;3.20;;
11535;SDS011;5824;49.336;8.652;2024-02-14T09:21:30;12.93;;;2.80;;
11535;SDS011;5824;49.336;8.652;2024-02-14T09:23:56;7.13;;;2.70;;
11535;SDS011;5824;49.336;8.652;2024-02-14T09:26:22;3.93;;;2.40;;
11535;SDS011;5824;49.336;8.652;2024-02-14T09:28:48;5.03;;;2.53;;
11535;SDS011;5824;49.336;8.652;2024-02-14T09:31:17;8.33;;;2.97;;
11535;SDS011;5824;49.336;8.652;2024-02-14T09:33:48;4.50;;;2.37;;
11535;SDS011;5824;49.336;8.652;2024-02-14T09:36:14;2.90;;;2.57;;
11535;SDS011;5824;49.336;8.652;2024-02-14T09:38:40;4.10;;;2.80;;
11535;SDS011;5824;49.336;8.652;2024-02-14T09:41:11;5.30;;;2.87;;
11535;SDS011;5824;49.336;8.652;2024-02-14T09:44:00;5.00;;;2.73;;
11535;SDS011;5824;49.336;8.652;2024-02-14T09:46:25;3.70;;;2.60;;
11535;SDS011;5824;49.336;8.652;2024-02-14T09:48:51;7.07;;;3.00;;
11535;SDS011;5824;49.336;8.652;2024-02-14T09:51:17;6.30;;;2.40;;
11535;SDS011;5824;49.336;8.652;2024-02-14T09:53:43;3.60;;;2.30;;
11535;SDS011;5824;49.336;8.652;2024-02-14T09:56:10;4.00;;;2.43;;
11535;SDS011;5824;49.336;8.652;2024-02-14T09:58:37;4.40;;;2.70;;
11535;SDS011;5824;49.336;8.652;2024-02-14T10:01:03;3.60;;;2.40;;
11535;SDS011;5824;49.336;8.652;2024-02-14T10:03:29;5.13;;;2.20;;
11535;SDS011;5824;49.336;8.652;2024-02-14T10:05:55;5.00;;;2.40;;
11535;SDS011;5824;49.336;8.652;2024-02-14T10:08:21;4.37;;;2.40;;
11535;SDS011;5824;49.336;8.652;2024-02-14T10:10:47;5.80;;;2.60;;
11535;SDS011;5824;49.336;8.652;2024-02-14T10:13:12;4.63;;;2.27;;
11535;SDS011;5824;49.336;8.652;2024-02-14T10:15:38;5.50;;;2.40;;
11535;SDS011;5824;49.336;8.652;2024-02-14T10:18:03;3.20;;;2.23;;
11535;SDS011;5824;49.336;8.652;2024-02-14T10:20:29;5.20;;;2.23;;
11535;SDS011;5824;49.336;8.652;2024-02-14T10:23:02;6.30;;;2.90;;
11535;SDS011;5824;49.336;8.652;2024-02-14T10:25:29;4.33;;;2.10;;
11535;SDS011;5824;49.336;8.652;2024-02-14T10:27:56;6.63;;;2.20;;
11535;SDS011;5824;49.336;8.652;2024-02-14T10:30:22;6.67;;;2.40;;
11535;SDS011;5824;49.336;8.652;2024-02-14T10:32:48;6.30;;;2.27;;
11535;SDS011;5824;49.336;8.652;2024-02-14T10:35:14;3.53;;;2.10;;
11535;SDS011;5824;49.336;8.652;2024-02-14T10:37:40;3.00;;;2.00;;
11535;SDS011;5824;49.336;8.652;2024-02-14T10:40:05;2.90;;;2.07;;
11535;SDS011;5824;49.336;8.652;2024-02-14T10:42:32;4.60;;;2.07;;
11535;SDS011;5824;49.336;8.652;2024-02-14T10:44:58;3.83;;;2.17;;
11535;SDS011;5824;49.336;8.652;2024-02-14T10:47:27;2.60;;;2.20;;
11535;SDS011;5824;49.336;8.652;2024-02-14T10:49:57;4.83;;;2.47;;
11535;SDS011;5824;49.336;8.652;2024-02-14T10:52:31;3.60;;;1.93;;
11535;SDS011;5824;49.336;8.652;2024-02-14T10:54:58;3.50;;;2.40;;
11535;SDS011;5824;49.336;8.652;2024-02-14T10:57:26;4.53;;;2.23;;
11535;SDS011;5824;49.336;8.652;2024-02-14T10:59:53;4.50;;;2.30;;
11535;SDS011;5824;49.336;8.652;2024-02-14T11:02:20;5.90;;;3.50;;
11535;SDS011;5824;49.336;8.652;2024-02-14T11:04:47;2.93;;;2.30;;
11535;SDS011;5824;49.336;8.652;2024-02-14T11:07:13;4.37;;;2.60;;
11535;SDS011;5824;49.336;8.652;2024-02-14T11:09:41;11.53;;;4.87;;
11535;SDS011;5824;49.336;8.652;2024-02-14T11:12:07;3.33;;;2.40;;
11535;SDS011;5824;49.336;8.652;2024-02-14T11:14:34;3.80;;;2.50;;
11535;SDS011;5824;49.336;8.652;2024-02-14T11:17:10;3.07;;;2.53;;
11535;SDS011;5824;49.336;8.652;2024-02-14T11:19:37;3.60;;;2.73;;
11535;SDS011;5824;49.336;8.652;2024-02-14T11:22:12;4.70;;;2.23;;
11535;SDS011;5824;49.336;8.652;2024-02-14T11:24:42;3.80;;;2.30;;
11535;SDS011;5824;49.336;8.652;2024-02-14T11:27:11;5.53;;;2.30;;
11535;SDS011;5824;49.336;8.652;2024-02-14T11:29:40;3.37;;;2.03;;
11535;SDS011;5824;49.336;8.652;2024-02-14T11:32:15;2.53;;;2.20;;
11535;SDS011;5824;49.336;8.652;2024-02-14T11:34:43;4.00;;;2.20;;
11535;SDS011;5824;49.336;8.652;2024-02-14T11:37:19;3.00;;;2.13;;
11535;SDS011;5824;49.336;8.652;2024-02-14T11:39:46;4.20;;;1.97;;
11535;SDS011;5824;49.336;8.652;2024-02-14T11:42:11;3.70;;;1.90;;
11535;SDS011;5824;49.336;8.652;2024-02-14T11:44:39;4.03;;;1.80;;
11535;SDS011;5824;49.336;8.652;2024-02-14T11:47:07;3.33;;;2.47;;
11535;SDS011;5824;49.336;8.652;2024-02-14T11:49:35;4.07;;;2.00;;
11535;SDS011;5824;49.336;8.652;2024-02-14T11:52:01;3.50;;;1.93;;
11535;SDS011;5824;49.336;8.652;2024-02-14T11:54:26;3.27;;;2.30;;
11535;SDS011;5824;49.336;8.652;2024-02-14T11:56:52;3.20;;;2.00;;
11535;SDS011;5824;49.336;8.652;2024-02-14T11:59:18;2.93;;;2.13;;
11535;SDS011;5824;49.336;8.652;2024-02-14T12:01:44;2.50;;;1.90;;
11535;SDS011;5824;49.336;8.652;2024-02-14T12:04:11;5.20;;;1.90;;
11535;SDS011;5824;49.336;8.652;2024-02-14T12:06:38;1.93;;;1.70;;
11535;SDS011;5824;49.336;8.652;2024-02-14T12:09:06;3.30;;;2.13;;
11535;SDS011;5824;49.336;8.652;2024-02-14T12:11:36;3.00;;;2.00;;
11535;SDS011;5824;49.336;8.652;2024-02-14T12:14:03;3.47;;;1.90;;
11535;SDS011;5824;49.336;8.652;2024-02-14T12:16:30;3.70;;;1.93;;
11535;SDS011;5824;49.336;8.652;2024-02-14T12:19:03;4.20;;;2.10;;
11535;SDS011;5824;49.336;8.652;2024-02-14T12:21:36;4.23;;;2.00;;
11535;SDS011;5824;49.336;8.652;2024-02-14T12:24:03;2.20;;;2.00;;
11535;SDS011;5824;49.336;8.652;2024-02-14T12:26:30;3.53;;;1.87;;
11535;SDS011;5824;49.336;8.652;2024-02-14T12:28:56;4.60;;;2.00;;
11535;SDS011;5824;49.336;8.652;2024-02-14T12:31:22;3.60;;;2.40;;
11535;SDS011;5824;49.336;8.652;2024-02-14T12:33:48;4.07;;;2.00;;
11535;SDS011;5824;49.336;8.652;2024-02-14T12:36:14;2.43;;;1.80;;
11535;SDS011;5824;49.336;8.652;2024-02-14T12:38:40;3.00;;;2.07;;
11535;SDS011;5824;49.336;8.652;2024-02-14T12:41:05;3.37;;;2.33;;
11535;SDS011;5824;49.336;8.652;2024-02-14T12:43:31;2.13;;;1.80;;
11535;SDS011;5824;49.336;8.652;2024-02-14T12:45:56;5.27;;;2.00;;
11535;SDS011;5824;49.336;8.652;2024-02-14T12:48:23;2.63;;;1.90;;
11535;SDS011;5824;49.336;8.652;2024-02-14T12:50:52;3.37;;;2.10;;
11535;SDS011;5824;49.336;8.652;2024-02-14T12:53:18;3.93;;;2.00;;
11535;SDS011;5824;49.336;8.652;2024-02-14T12:55:44;2.13;;;1.93;;
11535;SDS011;5824;49.336;8.652;2024-02-14T12:58:11;3.10;;;2.10;;
11535;SDS011;5824;49.336;8.652;2024-02-14T13:00:36;2.17;;;1.77;;
11535;SDS011;5824;49.336;8.652;2024-02-14T13:03:03;4.73;;;2.20;;
11535;SDS011;5824;49.336;8.652;2024-02-14T13:05:29;2.57;;;1.73;;
11535;SDS011;5824;49.336;8.652;2024-02-14T13:07:55;6.53;;;2.67;;
11535;SDS011;5824;49.336;8.652;2024-02-14T13:10:20;3.07;;;2.00;;
11535;SDS011;5824;49.336;8.652;2024-02-14T13:12:47;4.27;;;2.20;;
11535;SDS011;5824;49.336;8.652;2024-02-14T13:15:12;5.40;;;2.20;;
11535;SDS011;5824;49.336;8.652;2024-02-14T13:17:38;3.97;;;2.17;;
11535;SDS011;5824;49.336;8.652;2024-02-14T13:20:03;2.33;;;1.90;;
11535;SDS011;5824;49.336;8.652;2024-02-14T13:22:30;3.50;;;2.13;;
11535;SDS011;5824;49.336;8.652;2024-02-14T13:24:55;3.33;;;2.10;;
11535;SDS011;5824;49.336;8.652;2024-02-14T13:27:21;3.83;;;2.13;;
11535;SDS011;5824;49.336;8.652;2024-02-14T13:29:48;2.70;;;2.00;;
11535;SDS011;5824;49.336;8.652;2024-02-14T13:32:14;7.60;;;2.67;;
11535;SDS011;5824;49.336;8.652;2024-02-14T13:34:40;2.00;;;1.80;;
11535;SDS011;5824;49.336;8.652;2024-02-14T13:37:05;4.20;;;2.30;;
11535;SDS011;5824;49.336;8.652;2024-02-14T13:39:31;3.07;;;1.90;;
11535;SDS011;5824;49.336;8.652;2024-02-14T13:41:57;3.40;;;1.90;;
11535;SDS011;5824;49.336;8.652;2024-02-14T13:44:24;2.30;;;1.50;;
11535;SDS011;5824;49.336;8.652;2024-02-14T13:46:50;3.30;;;1.70;;
11535;SDS011;5824;49.336;8.652;2024-02-14T13:49:18;4.73;;;1.20;;
11535;SDS011;5824;49.336;8.652;2024-02-14T13:51:46;2.67;;;1.50;;
11535;SDS011;5824;49.336;8.652;2024-02-14T13:54:13;1.80;;;1.30;;
11535;SDS011;5824;49.336;8.652;2024-02-14T13:56:39;2.33;;;1.23;;
11535;SDS011;5824;49.336;8.652;2024-02-14T13:59:05;1.63;;;1.20;;
11535;SDS011;5824;49.336;8.652;2024-02-14T14:01:30;1.53;;;1.23;;
11535;SDS011;5824;49.336;8.652;2024-02-14T14:03:56;1.80;;;1.30;;
11535;SDS011;5824;49.336;8.652;2024-02-14T14:06:23;1.80;;;1.60;;
11535;SDS011;5824;49.336;8.652;2024-02-14T14:08:49;1.50;;;1.33;;
11535;SDS011;5824;49.336;8.652;2024-02-14T14:11:15;1.30;;;1.10;;
11535;SDS011;5824;49.336;8.652;2024-02-14T14:13:40;3.10;;;1.50;;
11535;SDS011;5824;49.336;8.652;2024-02-14T14:16:06;1.57;;;1.30;;
11535;SDS011;5824;49.336;8.652;2024-02-14T14:18:32;2.57;;;1.40;;
11535;SDS011;5824;49.336;8.652;2024-02-14T14:20:57;3.03;;;1.70;;
11535;SDS011;5824;49.336;8.652;2024-02-14T14:23:23;2.00;;;1.50;;
11535;SDS011;5824;49.336;8.652;2024-02-14T14:25:49;1.97;;;1.40;;
11535;SDS011;5824;49.336;8.652;2024-02-14T14:28:14;3.43;;;2.00;;
11535;SDS011;5824;49.336;8.652;2024-02-14T14:30:40;3.20;;;1.40;;
11535;SDS011;5824;49.336;8.652;2024-02-14T14:33:06;2.43;;;1.60;;
11535;SDS011;5824;49.336;8.652;2024-02-14T14:35:33;2.20;;;1.70;;
11535;SDS011;5824;49.336;8.652;2024-02-14T14:37:59;3.50;;;1.80;;
11535;SDS011;5824;49.336;8.652;2024-02-14T14:40:25;3.00;;;1.73;;
11535;SDS011;5824;49.336;8.652;2024-02-14T14:42:51;2.33;;;1.90;;
11535;SDS011;5824;49.336;8.652;2024-02-14T14:45:17;4.50;;;2.20;;
11535;SDS011;5824;49.336;8.652;2024-02-14T14:47:43;2.30;;;1.83;;
11535;SDS011;5824;49.336;8.652;2024-02-14T14:50:08;3.40;;;1.97;;
11535;SDS011;5824;49.336;8.652;2024-02-14T14:52:34;3.50;;;2.17;;
11535;SDS011;5824;49.336;8.652;2024-02-14T14:55:00;4.27;;;2.13;;